Time;durP1;ratioP1;P1;durP2;ratioP2;P2;SDS_P1;SDS_P2;PMS_P1;PMS_P2;Temp;Humidity;BMP_temperature;BMP_pressure;BME280_temperature;BME280_humidity;BME280_pressure;Samples;Min_cycle;Max_cycle;Signal;HPM_P1;HPM_P2
2021/01/25 00:00:37;;;;;;;24.92;13.98;;;;;;;-1.04;86.13;100122.09;4985966;28;20069;-49
2021/01/25 00:03:04;;;;;;;23.65;13.82;;;;;;;-1.04;86.39;100111.22;4989575;28;20046;-48
2021/01/25 00:05:31;;;;;;;22.52;14.63;;;;;;;-1.05;86.33;100120.47;4976955;28;20043;-48
2021/01/25 00:07:58;;;;;;;26.05;14.82;;;;;;;-1.06;86.00;100122.38;4988302;28;20038;-48
2021/01/25 00:10:26;;;;;;;27.10;14.75;;;;;;;-1.05;86.07;100121.28;4975762;28;20536;-48
2021/01/25 00:12:53;;;;;;;26.52;14.20;;;;;;;-1.07;86.05;100131.63;4975697;28;20053;-52
2021/01/25 00:15:19;;;;;;;26.88;13.65;;;;;;;-1.06;86.09;100135.16;4988730;28;20097;-52
2021/01/25 00:17:45;;;;;;;23.63;13.38;;;;;;;-1.07;86.11;100123.47;4976879;28;20389;-49
2021/01/25 00:20:13;;;;;;;25.40;15.05;;;;;;;-1.08;86.04;100138.13;4995202;28;20077;-53
2021/01/25 00:22:39;;;;;;;24.17;13.77;;;;;;;-1.08;85.94;100138.13;4990790;28;20462;-52
2021/01/25 00:25:06;;;;;;;31.77;15.68;;;;;;;-1.08;85.94;100138.13;4975603;28;20051;-48
2021/01/25 00:27:33;;;;;;;30.92;14.98;;;;;;;-1.08;85.94;100137.31;4957812;28;20093;-49
2021/01/25 00:29:59;;;;;;;35.03;15.70;;;;;;;-1.08;85.84;100137.31;4989690;28;20753;-48
2021/01/25 00:32:25;;;;;;;27.40;14.75;;;;;;;-1.09;86.02;100135.72;4992976;28;20093;-52
2021/01/25 00:34:52;;;;;;;30.95;14.20;;;;;;;-1.09;85.75;100146.59;4994006;28;20440;-51
2021/01/25 00:37:18;;;;;;;31.35;15.43;;;;;;;-1.10;85.91;100150.38;4993953;28;20131;-50
2021/01/25 00:39:44;;;;;;;33.83;17.00;;;;;;;-1.13;85.88;100143.63;4993526;28;20452;-49
2021/01/25 00:42:10;;;;;;;29.95;15.18;;;;;;;-1.12;85.79;100137.09;4994057;28;20054;-48
2021/01/25 00:44:37;;;;;;;26.77;14.25;;;;;;;-1.12;85.97;100137.09;4983377;28;20078;-49
2021/01/25 00:47:03;;;;;;;25.33;13.57;;;;;;;-1.12;85.84;100147.16;4993594;28;20038;-49
2021/01/25 00:49:29;;;;;;;28.75;13.50;;;;;;;-1.13;85.92;100143.63;4984951;28;20786;-49
2021/01/25 00:51:56;;;;;;;27.23;13.90;;;;;;;-1.14;85.44;100142.00;4992108;28;20090;-51
2021/01/25 00:54:22;;;;;;;28.77;13.23;;;;;;;-1.14;85.82;100152.88;4994159;28;20121;-47
2021/01/25 00:56:49;;;;;;;20.38;10.93;;;;;;;-1.16;85.82;100152.31;4993900;28;20547;-51
2021/01/25 00:59:15;;;;;;;21.60;11.57;;;;;;;-1.15;86.05;100153.13;4993804;28;20085;-51
2021/01/25 01:01:42;;;;;;;18.92;11.48;;;;;;;-1.15;85.87;100148.53;4987914;28;20054;-53
2021/01/25 01:04:08;;;;;;;22.95;12.30;;;;;;;-1.14;85.95;100155.59;4993595;28;20128;-53
2021/01/25 01:06:34;;;;;;;20.95;10.52;;;;;;;-1.14;85.85;100149.34;4993973;28;20050;-47
2021/01/25 01:09:01;;;;;;;24.33;11.98;;;;;;;-1.15;85.66;100158.56;4992487;28;20493;-46
2021/01/25 01:11:27;;;;;;;18.60;10.73;;;;;;;-1.16;85.93;100160.47;4993145;28;20074;-51
2021/01/25 01:13:54;;;;;;;22.77;11.40;;;;;;;-1.15;85.73;100159.38;4973753;28;20370;-48
2021/01/25 01:16:20;;;;;;;18.92;10.90;;;;;;;-1.15;85.79;100153.97;4992647;28;20038;-50
2021/01/25 01:18:46;;;;;;;20.05;11.60;;;;;;;-1.14;85.69;100160.22;4991692;28;20052;-51
2021/01/25 01:21:13;;;;;;;24.40;11.70;;;;;;;-1.15;85.73;100159.38;4993514;28;20057;-47
2021/01/25 01:23:39;;;;;;;20.17;11.32;;;;;;;-1.14;85.78;100165.63;4992815;28;20133;-51
2021/01/25 01:26:05;;;;;;;22.65;11.57;;;;;;;-1.16;85.74;100156.94;4992481;28;20078;-49
2021/01/25 01:28:31;;;;;;;22.52;10.73;;;;;;;-1.14;85.77;100165.63;4990165;28;20133;-52
2021/01/25 01:30:58;;;;;;;21.58;11.32;;;;;;;-1.15;85.74;100164.81;4990472;28;20388;-48
2021/01/25 01:33:24;;;;;;;19.83;11.20;;;;;;;-1.15;85.89;100162.09;4991205;28;20488;-49
2021/01/25 01:35:50;;;;;;;22.38;10.25;;;;;;;-1.14;85.60;100162.91;4973429;28;20058;-51
2021/01/25 01:38:17;;;;;;;23.20;11.73;;;;;;;-1.15;85.83;100164.81;4999903;28;20104;-50
2021/01/25 01:40:43;;;;;;;20.23;11.18;;;;;;;-1.14;85.60;100165.63;4990165;28;20452;-48
2021/01/25 01:43:09;;;;;;;21.63;10.75;;;;;;;-1.17;85.71;100167.00;4991887;28;20070;-48
2021/01/25 01:45:36;;;;;;;19.77;11.10;;;;;;;-1.15;85.41;100153.13;4993258;28;20084;-48
2021/01/25 01:48:02;;;;;;;19.45;10.55;;;;;;;-1.16;85.47;100163.19;4992404;28;20081;-47
2021/01/25 01:50:29;;;;;;;21.75;11.10;;;;;;;-1.18;85.46;100162.66;4992291;28;20381;-50
2021/01/25 01:52:55;;;;;;;22.48;12.18;;;;;;;-1.19;85.55;100166.47;4990757;28;20062;-48
2021/01/25 01:55:23;;;;;;;20.13;10.00;;;;;;;-1.19;85.48;100174.59;4975865;28;20038;-48
2021/01/25 01:57:53;;;;;;;20.85;10.38;;;;;;;-1.19;85.60;100169.19;4993667;28;20050;-50
2021/01/25 02:00:20;;;;;;;18.55;10.05;;;;;;;-1.17;85.53;100177.88;4991803;28;20081;-51
2021/01/25 02:02:47;;;;;;;16.95;9.75;;;;;;;-1.18;85.61;100176.25;4992830;28;20042;-52
2021/01/25 02:05:14;;;;;;;19.42;9.77;;;;;;;-1.18;85.65;100176.25;4992318;28;20835;-51
2021/01/25 02:07:49;;;;;;;20.58;10.38;;;;;;;-1.19;85.74;100180.03;4987696;28;20043;-49
2021/01/25 02:10:18;;;;;;;21.20;10.25;;;;;;;-1.19;85.53;100182.75;4988970;28;20564;-48
2021/01/25 02:12:50;;;;;;;16.92;10.18;;;;;;;-1.20;85.88;100183.88;4986019;28;20491;-47
2021/01/25 02:15:19;;;;;;;17.42;9.60;;;;;;;-1.19;85.82;100184.69;4974826;28;20690;-49
2021/01/25 02:17:49;;;;;;;13.40;8.48;;;;;;;-1.20;85.59;100194.72;4992052;28;20085;-49
2021/01/25 02:20:27;;;;;;;16.77;9.23;;;;;;;-1.18;85.70;100191.72;4992511;28;20056;-48
2021/01/25 02:23:32;;;;;;;19.30;9.13;;;;;;;-1.20;85.58;100205.59;4990276;28;20038;-49
2021/01/25 02:26:17;;;;;;;18.98;10.60;;;;;;;-1.19;85.71;100193.63;4991736;28;20050;-49
2021/01/25 02:28:44;;;;;;;19.40;10.95;;;;;;;-1.20;85.79;100202.88;4992410;28;20101;-49
2021/01/25 02:31:11;;;;;;;18.58;10.27;;;;;;;-1.19;85.63;100207.19;4975066;28;20132;-50
2021/01/25 02:33:46;;;;;;;22.20;10.43;;;;;;;-1.20;85.71;100204.78;4991684;28;20502;-52
2021/01/25 02:36:17;;;;;;;19.30;10.57;;;;;;;-1.21;85.77;100203.97;4992535;28;20046;-52
2021/01/25 02:38:47;;;;;;;20.00;9.50;;;;;;;-1.20;85.72;100211.03;4984170;28;20031;-47
2021/01/25 02:41:15;;;;;;;17.17;9.75;;;;;;;-1.19;85.87;100212.63;4984518;28;20125;-50
2021/01/25 02:43:43;;;;;;;16.98;9.90;;;;;;;-1.21;85.86;100217.53;4990773;28;20054;-49
2021/01/25 02:46:10;;;;;;;20.48;11.55;;;;;;;-1.20;85.84;100212.94;4973255;28;20106;-47
2021/01/25 02:48:37;;;;;;;20.20;9.65;;;;;;;-1.21;86.18;100209.41;4990289;28;20082;-49
2021/01/25 02:51:05;;;;;;;16.55;9.32;;;;;;;-1.23;86.11;100212.41;4991464;28;20056;-51
2021/01/25 02:53:31;;;;;;;19.95;10.68;;;;;;;-1.22;86.03;100227.59;4991546;28;20042;-49
2021/01/25 02:56:00;;;;;;;18.70;10.18;;;;;;;-1.20;85.95;100234.66;4991265;28;20046;-49
2021/01/25 02:58:27;;;;;;;22.48;11.05;;;;;;;-1.22;85.99;100234.94;4991602;28;20077;-48
2021/01/25 03:00:54;;;;;;;18.05;10.00;;;;;;;-1.24;86.10;100232.50;4985842;28;20046;-46
2021/01/25 03:03:23;;;;;;;20.20;10.13;;;;;;;-1.25;86.12;100235.50;4991513;28;20046;-52
2021/01/25 03:05:50;;;;;;;17.27;10.45;;;;;;;-1.26;86.23;100242.00;4990196;28;20053;-50
2021/01/25 03:08:17;;;;;;;16.15;9.45;;;;;;;-1.24;86.31;100234.38;4983112;28;20069;-52
2021/01/25 03:10:46;;;;;;;17.67;9.65;;;;;;;-1.25;86.33;100243.66;4991076;28;20042;-51
2021/01/25 03:13:14;;;;;;;19.38;9.82;;;;;;;-1.24;86.36;100231.66;4987273;28;20104;-49
2021/01/25 03:15:44;;;;;;;14.88;8.90;;;;;;;-1.24;86.22;100235.22;4990333;28;20439;-49
2021/01/25 03:18:10;;;;;;;16.30;9.57;;;;;;;-1.26;86.18;100231.97;4976192;28;20050;-50
2021/01/25 03:20:36;;;;;;;17.23;9.25;;;;;;;-1.27;86.37;100226.78;4985389;28;20100;-48
2021/01/25 03:23:03;;;;;;;20.88;9.43;;;;;;;-1.27;86.33;100232.22;4990533;28;20070;-48
2021/01/25 03:25:29;;;;;;;13.93;8.60;;;;;;;-1.27;86.37;100240.38;4991759;28;20385;-48
2021/01/25 03:27:56;;;;;;;16.73;8.85;;;;;;;-1.26;86.36;100228.44;4990510;28;20046;-50
2021/01/25 03:30:23;;;;;;;16.33;9.10;;;;;;;-1.27;86.15;100232.22;4991658;28;20125;-48
2021/01/25 03:32:49;;;;;;;15.15;8.52;;;;;;;-1.28;86.21;100236.88;4991151;28;20044;-52
2021/01/25 03:35:15;;;;;;;14.40;8.70;;;;;;;-1.29;86.24;100235.25;4990310;28;20050;-51
2021/01/25 03:37:42;;;;;;;14.80;8.23;;;;;;;-1.29;86.35;100237.94;4987475;28;20053;-52
2021/01/25 03:40:09;;;;;;;16.35;7.72;;;;;;;-1.28;86.30;100239.59;4990176;28;20046;-51
2021/01/25 03:42:37;;;;;;;19.98;8.40;;;;;;;-1.28;86.61;100246.91;4990922;28;20138;-51
2021/01/25 03:45:04;;;;;;;13.90;8.48;;;;;;;-1.28;86.46;100246.91;4991318;28;20133;-53
2021/01/25 03:47:31;;;;;;;13.65;7.75;;;;;;;-1.30;86.57;100244.47;4991852;28;20046;-47
2021/01/25 03:49:57;;;;;;;17.38;7.28;;;;;;;-1.28;86.57;100246.91;4989548;28;20050;-50
2021/01/25 03:52:25;;;;;;;13.60;7.57;;;;;;;-1.28;86.59;100246.91;4988199;28;20082;-51
2021/01/25 03:54:52;;;;;;;13.52;8.07;;;;;;;-1.27;86.70;100245.81;4978808;28;20142;-46
2021/01/25 03:57:18;;;;;;;15.05;7.68;;;;;;;-1.28;86.58;100246.91;4991475;28;20038;-49
2021/01/25 03:59:44;;;;;;;16.33;7.80;;;;;;;-1.27;86.53;100256.66;4991268;28;20042;-51
2021/01/25 04:02:13;;;;;;;13.15;7.30;;;;;;;-1.27;86.55;100257.50;4990725;28;20074;-47
2021/01/25 04:04:43;;;;;;;16.20;9.00;;;;;;;-1.29;86.56;100267.81;4968728;28;20493;-48
2021/01/25 04:07:10;;;;;;;17.48;8.20;;;;;;;-1.29;86.26;100267.00;4991004;28;20401;-54
2021/01/25 04:09:40;;;;;;;14.23;7.10;;;;;;;-1.31;86.82;100266.47;4990873;28;20074;-49
2021/01/25 04:12:08;;;;;;;14.98;7.10;;;;;;;-1.33;86.41;100268.66;4990719;28;20085;-47
2021/01/25 04:14:34;;;;;;;14.15;7.50;;;;;;;-1.32;86.61;100278.41;4990182;28;20093;-50
2021/01/25 04:17:01;;;;;;;12.82;6.50;;;;;;;-1.34;86.25;100275.19;4990120;28;20673;-52
2021/01/25 04:19:27;;;;;;;12.15;7.60;;;;;;;-1.34;86.34;100276.00;4990803;28;20407;-51
2021/01/25 04:21:54;;;;;;;9.93;6.22;;;;;;;-1.35;86.56;100279.78;4990307;28;20046;-52
2021/01/25 04:24:20;;;;;;;13.32;7.15;;;;;;;-1.34;86.70;100280.59;4989885;28;20445;-50
2021/01/25 04:26:46;;;;;;;16.27;7.07;;;;;;;-1.35;86.49;100282.50;4974786;28;20046;-49
2021/01/25 04:29:13;;;;;;;13.70;6.82;;;;;;;-1.34;86.66;100283.31;4994862;28;20038;-53
2021/01/25 04:31:40;;;;;;;12.30;6.88;;;;;;;-1.35;86.59;100279.78;4994581;28;20058;-51
2021/01/25 04:34:07;;;;;;;15.60;8.30;;;;;;;-1.34;86.56;100280.59;4993778;28;20109;-51
2021/01/25 04:36:33;;;;;;;11.45;6.65;;;;;;;-1.34;86.34;100289.56;4994440;28;20049;-47
2021/01/25 04:39:00;;;;;;;8.07;5.05;;;;;;;-1.34;86.33;100286.03;4990975;28;20583;-51
2021/01/25 04:41:28;;;;;;;10.60;6.75;;;;;;;-1.35;86.51;100289.84;5000202;28;20058;-52
2021/01/25 04:43:54;;;;;;;12.18;6.40;;;;;;;-1.35;86.20;100287.16;4987775;28;20046;-49
2021/01/25 04:46:22;;;;;;;10.85;6.13;;;;;;;-1.35;86.32;100282.50;4994470;28;20452;-51
2021/01/25 04:48:49;;;;;;;11.30;6.38;;;;;;;-1.36;86.37;100280.06;4993383;28;20043;-49
2021/01/25 04:51:22;;;;;;;11.23;6.25;;;;;;;-1.37;86.28;100281.16;4994230;28;20050;-51
2021/01/25 04:53:49;;;;;;;10.48;5.65;;;;;;;-1.37;86.17;100284.69;4989225;28;20500;-48
2021/01/25 04:56:16;;;;;;;13.25;6.22;;;;;;;-1.37;86.24;100286.59;4992486;28;20046;-51
2021/01/25 04:58:42;;;;;;;9.95;5.32;;;;;;;-1.40;86.41;100287.13;4990541;28;20145;-51
2021/01/25 05:01:09;;;;;;;10.90;5.90;;;;;;;-1.37;86.29;100294.72;4992377;28;20443;-48
2021/01/25 05:03:35;;;;;;;10.27;6.00;;;;;;;-1.37;86.30;100292.84;4994201;28;20432;-51
2021/01/25 05:06:02;;;;;;;9.23;5.35;;;;;;;-1.38;86.29;100291.19;4993810;28;20116;-52
2021/01/25 05:08:28;;;;;;;9.73;5.43;;;;;;;-1.38;86.46;100293.91;4990752;28;20826;-52
2021/01/25 05:10:54;;;;;;;10.32;5.35;;;;;;;-1.36;86.51;100304.50;4992904;28;20053;-52
2021/01/25 05:13:24;;;;;;;13.63;5.28;;;;;;;-1.36;85.99;100289.03;4991966;28;20046;-50
2021/01/25 05:15:52;;;;;;;9.02;5.75;;;;;;;-1.36;86.12;100299.91;4992513;28;20403;-50
2021/01/25 05:18:24;;;;;;;10.50;5.45;;;;;;;-1.37;86.21;100314.56;4993627;28;20382;-50
2021/01/25 05:20:56;;;;;;;7.88;4.97;;;;;;;-1.38;86.23;100314.84;4976241;28;20042;-50
2021/01/25 05:23:23;;;;;;;11.73;5.35;;;;;;;-1.37;86.31;100320.00;4992036;28;20046;-53
2021/01/25 05:26:03;;;;;;;8.00;4.30;;;;;;;-1.38;86.19;100320.28;4993401;28;20121;-51
2021/01/25 05:28:30;;;;;;;12.73;5.47;;;;;;;-1.38;86.18;100323.00;4992843;28;20089;-51
2021/01/25 05:30:57;;;;;;;11.15;7.47;;;;;;;-1.36;86.23;100327.06;4993837;28;20086;-52
2021/01/25 05:33:27;;;;;;;9.68;5.75;;;;;;;-1.36;86.21;100316.19;4991482;28;20501;-47
2021/01/25 05:35:55;;;;;;;6.53;4.43;;;;;;;-1.36;86.10;100326.25;4993070;28;20484;-51
2021/01/25 05:38:22;;;;;;;8.77;5.05;;;;;;;-1.36;86.20;100327.06;4983957;28;20122;-52
2021/01/25 05:40:55;;;;;;;6.65;4.35;;;;;;;-1.34;86.11;100340.34;4983954;28;20043;-49
2021/01/25 05:43:21;;;;;;;7.05;4.80;;;;;;;-1.34;86.19;100343.06;4966652;28;20054;-51
2021/01/25 05:45:47;;;;;;;7.25;4.30;;;;;;;-1.34;86.14;100340.34;4992391;28;20085;-48
2021/01/25 05:48:14;;;;;;;9.88;4.20;;;;;;;-1.33;85.95;100341.97;4993407;28;20080;-49
2021/01/25 05:50:42;;;;;;;22.33;6.05;;;;;;;-1.33;85.93;100342.78;4992063;28;20603;-47
2021/01/25 05:53:11;;;;;;;8.02;4.15;;;;;;;-1.31;86.00;100339.78;4991829;28;20488;-49
2021/01/25 05:55:39;;;;;;;8.23;4.15;;;;;;;-1.30;86.20;100334.06;4992590;28;20050;-49
2021/01/25 05:58:05;;;;;;;6.40;4.05;;;;;;;-1.30;86.15;100347.66;4975772;28;20077;-50
2021/01/25 06:00:33;;;;;;;8.85;4.95;;;;;;;-1.32;85.97;100344.41;4992817;28;20104;-50
2021/01/25 06:03:01;;;;;;;8.40;3.80;;;;;;;-1.33;86.17;100347.41;4992957;28;20050;-48
2021/01/25 06:05:42;;;;;;;5.05;3.95;;;;;;;-1.35;86.12;100350.38;4991658;28;20512;-49
2021/01/25 06:08:48;;;;;;;7.30;3.50;;;;;;;-1.33;86.18;100353.66;4985121;28;20042;-50
2021/01/25 06:11:19;;;;;;;5.93;3.83;;;;;;;-1.30;86.11;100357.72;4990737;28;20334;-47
2021/01/25 06:13:52;;;;;;;6.97;4.13;;;;;;;-1.30;86.10;100357.72;4993195;28;20050;-47
2021/01/25 06:16:24;;;;;;;7.60;3.13;;;;;;;-1.31;86.25;100356.09;4991960;28;20077;-46
2021/01/25 06:19:08;;;;;;;9.13;3.25;;;;;;;-1.32;85.84;100355.25;4992331;28;20074;-47
2021/01/25 06:21:37;;;;;;;7.70;3.72;;;;;;;-1.30;85.92;100374.00;4992011;28;20050;-49
2021/01/25 06:24:06;;;;;;;5.28;3.70;;;;;;;-1.30;86.00;100363.16;4985555;28;20097;-47
2021/01/25 06:26:33;;;;;;;4.10;2.72;;;;;;;-1.32;86.12;100374.28;4982420;28;20109;-47
2021/01/25 06:29:09;;;;;;;7.20;3.50;;;;;;;-1.31;86.15;100362.34;4992749;28;20046;-48
2021/01/25 06:31:38;;;;;;;5.88;3.72;;;;;;;-1.30;86.20;100363.16;4978815;28;20050;-48
2021/01/25 06:34:10;;;;;;;6.70;3.65;;;;;;;-1.29;85.93;100364.75;4981816;28;20066;-47
2021/01/25 06:36:39;;;;;;;7.45;3.20;;;;;;;-1.29;86.04;100381.06;4992196;28;20137;-46
2021/01/25 06:39:06;;;;;;;5.70;3.50;;;;;;;-1.31;86.00;100373.19;4974476;28;20046;-49
2021/01/25 06:41:36;;;;;;;11.07;3.55;;;;;;;-1.31;85.89;100369.66;4986027;28;20058;-47
2021/01/25 06:44:03;;;;;;;4.07;2.92;;;;;;;-1.31;85.99;100372.38;4972693;28;20442;-46
2021/01/25 06:46:33;;;;;;;9.40;3.40;;;;;;;-1.30;86.18;100376.72;4985752;28;20097;-47
2021/01/25 06:49:00;;;;;;;5.28;3.10;;;;;;;-1.30;85.82;100376.72;4991587;28;20500;-46
2021/01/25 06:51:28;;;;;;;3.85;3.05;;;;;;;-1.30;86.08;100374.00;4974173;28;20082;-47
2021/01/25 06:53:57;;;;;;;8.45;3.22;;;;;;;-1.29;85.90;100378.34;4985168;28;20081;-46
2021/01/25 06:56:25;;;;;;;5.95;3.10;;;;;;;-1.29;85.90;100378.34;4991620;28;20420;-48
2021/01/25 06:58:51;;;;;;;5.88;2.67;;;;;;;-1.29;85.88;100383.78;4987362;28;20050;-50
2021/01/25 07:01:20;;;;;;;8.38;3.95;;;;;;;-1.30;86.23;100385.66;4974530;28;20084;-50
2021/01/25 07:03:52;;;;;;;4.80;3.42;;;;;;;-1.29;86.02;100387.31;4992056;28;20037;-47
2021/01/25 07:06:18;;;;;;;8.32;3.30;;;;;;;-1.29;85.86;100395.44;4991026;28;20038;-48
2021/01/25 07:08:55;;;;;;;5.47;2.67;;;;;;;-1.30;85.84;100398.44;4974400;28;20054;-53
2021/01/25 07:11:26;;;;;;;5.65;2.50;;;;;;;-1.30;85.82;100398.44;4991069;28;20038;-51
2021/01/25 07:13:53;;;;;;;7.82;2.85;;;;;;;-1.29;85.90;100397.34;4970800;28;20046;-49
2021/01/25 07:16:23;;;;;;;4.22;3.20;;;;;;;-1.30;85.88;100412.03;4987815;28;20507;-48
2021/01/25 07:18:51;;;;;;;4.53;3.45;;;;;;;-1.30;86.03;100409.31;4990673;28;20061;-53
2021/01/25 07:21:18;;;;;;;5.20;3.05;;;;;;;-1.30;85.74;100403.88;4990360;28;20089;-49
2021/01/25 07:23:46;;;;;;;4.40;2.80;;;;;;;-1.30;86.09;100412.03;4985884;28;20038;-50
2021/01/25 07:26:18;;;;;;;5.88;2.45;;;;;;;-1.30;85.84;100418.25;4991895;28;20101;-49
2021/01/25 07:28:45;;;;;;;6.22;2.90;;;;;;;-1.29;85.74;100421.78;4990865;28;20046;-51
2021/01/25 07:31:12;;;;;;;6.68;3.10;;;;;;;-1.30;85.87;100420.97;4990199;28;20089;-49
2021/01/25 07:33:38;;;;;;;3.10;2.30;;;;;;;-1.29;85.82;100428.03;4990638;28;20130;-49
2021/01/25 07:36:06;;;;;;;6.07;2.70;;;;;;;-1.29;85.68;100440.78;4991407;28;20042;-49
2021/01/25 07:38:35;;;;;;;5.05;3.00;;;;;;;-1.29;85.73;100435.38;4991208;28;20081;-51
2021/01/25 07:41:01;;;;;;;4.85;2.90;;;;;;;-1.29;85.74;100440.78;4974204;28;20505;-48
2021/01/25 07:43:30;;;;;;;5.32;2.70;;;;;;;-1.32;85.81;100436.72;4990883;28;20210;-46
2021/01/25 07:46:09;;;;;;;4.10;2.80;;;;;;;-1.32;85.78;100449.47;4990654;28;20054;-48
2021/01/25 07:48:50;;;;;;;5.38;2.20;;;;;;;-1.31;85.92;100442.97;4990007;28;20046;-49
2021/01/25 07:51:24;;;;;;;3.55;2.35;;;;;;;-1.30;85.89;100456.25;4988039;28;20046;-45
2021/01/25 07:53:51;;;;;;;4.20;2.65;;;;;;;-1.28;85.83;100458.72;4990754;28;20074;-48
2021/01/25 07:56:18;;;;;;;8.00;2.70;;;;;;;-1.26;85.76;100448.41;4991349;28;20105;-51
2021/01/25 07:58:46;;;;;;;5.40;2.67;;;;;;;-1.26;86.02;100451.94;5002440;28;20046;-49
2021/01/25 08:01:35;;;;;;;5.20;2.40;;;;;;;-1.26;85.74;100451.13;4991353;28;20089;-51
2021/01/25 08:04:04;;;;;;;6.35;3.05;;;;;;;-1.26;85.79;100454.66;4982950;28;20055;-47
2021/01/25 08:06:34;;;;;;;5.25;2.30;;;;;;;-1.26;85.77;100472.84;4985840;28;20039;-50
2021/01/25 08:09:09;;;;;;;5.93;2.95;;;;;;;-1.26;85.71;100468.22;4994946;28;20089;-48
2021/01/25 08:11:38;;;;;;;4.35;2.35;;;;;;;-1.25;85.78;100478.00;4994226;28;20043;-47
2021/01/25 08:14:07;;;;;;;7.82;3.47;;;;;;;-1.27;85.79;100472.00;4993359;28;20069;-52
2021/01/25 08:16:38;;;;;;;5.88;2.90;;;;;;;-1.27;85.74;100476.63;4992874;28;20062;-48
2021/01/25 08:19:35;;;;;;;8.27;3.33;;;;;;;-1.28;85.75;100483.16;4995086;28;20049;-49
2021/01/25 08:22:04;;;;;;;8.30;3.30;;;;;;;-1.27;85.75;100490.22;4973436;28;20386;-51
2021/01/25 08:24:32;;;;;;;5.40;2.70;;;;;;;-1.25;85.79;100485.34;4993961;28;20125;-49
2021/01/25 08:27:13;;;;;;;9.50;3.17;;;;;;;-1.26;85.80;100500.00;4993675;28;20531;-47
2021/01/25 08:29:41;;;;;;;4.53;2.90;;;;;;;-1.24;85.71;100497.81;4993853;28;20050;-51
2021/01/25 08:32:23;;;;;;;8.60;4.10;;;;;;;-1.24;85.80;100495.09;4994465;28;20054;-51
2021/01/25 08:35:01;;;;;;;17.47;12.70;;;;;;;-1.25;85.86;100497.03;4992135;28;20050;-48
2021/01/25 08:37:32;;;;;;;7.05;3.85;;;;;;;-1.21;85.73;100497.28;4979536;28;20089;-51
2021/01/25 08:40:20;;;;;;;10.65;5.25;;;;;;;-1.21;85.52;100494.56;4987881;28;20046;-50
2021/01/25 08:42:47;;;;;;;17.25;8.45;;;;;;;-1.19;85.67;100500.53;4980176;28;20077;-53
2021/01/25 08:45:24;;;;;;;6.07;3.40;;;;;;;-1.18;85.64;100499.44;4963504;28;20104;-46
2021/01/25 08:47:50;;;;;;;7.57;5.15;;;;;;;-1.14;85.99;100508.69;4985757;28;20054;-50
2021/01/25 08:50:24;;;;;;;20.52;12.95;;;;;;;-1.12;85.46;100505.69;4977984;28;20437;-53
2021/01/25 08:53:03;;;;;;;24.35;14.48;;;;;;;-1.10;85.74;100509.75;4988442;28;20831;-49
2021/01/25 08:55:43;;;;;;;12.32;6.60;;;;;;;-1.07;85.74;100503.78;4984531;28;20050;-54
2021/01/25 08:58:30;;;;;;;12.30;5.22;;;;;;;-1.02;85.72;100509.19;4988016;28;20050;-51
2021/01/25 09:00:58;;;;;;;20.23;10.48;;;;;;;-0.98;85.77;100515.69;4990401;28;20129;-52
2021/01/25 09:03:25;;;;;;;5.93;4.15;;;;;;;-0.95;85.72;100523.31;4991495;28;20046;-54
2021/01/25 09:05:55;;;;;;;11.07;4.35;;;;;;;-0.92;85.82;100513.78;4979098;28;20046;-51
2021/01/25 09:08:26;;;;;;;11.60;4.30;;;;;;;-0.90;85.66;100515.13;4990977;28;20053;-49
2021/01/25 09:10:52;;;;;;;34.85;12.68;;;;;;;-0.88;85.71;100504.84;4990650;28;20065;-51
2021/01/25 09:13:18;;;;;;;16.80;8.75;;;;;;;-0.84;85.61;100508.59;4988414;28;20066;-47
2021/01/25 09:15:45;;;;;;;9.77;5.90;;;;;;;-0.82;85.64;100521.94;4981545;28;20042;-47
2021/01/25 09:18:12;;;;;;;16.10;8.27;;;;;;;-0.82;85.77;100522.72;4989890;28;20878;-49
2021/01/25 09:20:39;;;;;;;39.38;22.88;;;;;;;-0.78;85.64;100517.56;4987579;28;20076;-52
2021/01/25 09:23:06;;;;;;;11.68;8.70;;;;;;;-0.77;85.90;100525.44;4990693;28;20043;-50
2021/01/25 09:25:33;;;;;;;15.15;8.30;;;;;;;-0.75;85.82;100517.84;4991573;28;20050;-50
2021/01/25 09:28:00;;;;;;;10.45;5.40;;;;;;;-0.73;85.60;100523.00;4991099;28;20097;-50
2021/01/25 09:30:28;;;;;;;14.57;6.20;;;;;;;-0.73;85.55;100525.69;4988530;28;20054;-50
2021/01/25 09:32:55;;;;;;;17.05;7.70;;;;;;;-0.73;85.31;100537.41;4989793;28;20401;-51
2021/01/25 09:35:23;;;;;;;12.05;6.80;;;;;;;-0.72;85.51;100536.31;4989575;28;20053;-51
2021/01/25 09:37:49;;;;;;;7.57;4.10;;;;;;;-0.72;85.56;100533.59;4990500;28;20046;-49
2021/01/25 09:40:16;;;;;;;12.98;4.45;;;;;;;-0.69;85.77;100535.75;4990245;28;20129;-52
2021/01/25 09:42:43;;;;;;;9.77;4.28;;;;;;;-0.66;85.52;100537.91;4989204;28;20046;-47
2021/01/25 09:45:13;;;;;;;6.90;3.65;;;;;;;-0.63;85.79;100542.81;4990452;28;20092;-47
2021/01/25 09:47:40;;;;;;;8.18;3.92;;;;;;;-0.60;85.52;100544.16;4974080;28;20046;-47
2021/01/25 09:50:13;;;;;;;8.35;3.15;;;;;;;-0.55;85.66;100554.19;4971890;28;20050;-50
2021/01/25 09:52:42;;;;;;;9.55;3.55;;;;;;;-0.52;85.70;100548.19;4978697;28;20413;-49
2021/01/25 09:55:09;;;;;;;7.25;2.80;;;;;;;-0.47;85.81;100551.72;4980121;28;20491;-49
2021/01/25 09:57:36;;;;;;;7.22;2.80;;;;;;;-0.44;85.65;100555.78;4990068;28;20054;-53
2021/01/25 10:00:06;;;;;;;5.75;2.65;;;;;;;-0.40;85.40;100546.00;4990096;28;20065;-50
2021/01/25 10:02:36;;;;;;;5.95;2.47;;;;;;;-0.37;85.46;100550.88;4990695;28;20124;-58
2021/01/25 10:05:04;;;;;;;11.55;2.78;;;;;;;-0.34;85.66;100555.75;4990315;28;20049;-49
2021/01/25 10:07:34;;;;;;;6.88;2.90;;;;;;;-0.29;85.48;100559.25;4988843;28;20050;-52
2021/01/25 10:10:10;;;;;;;5.75;2.95;;;;;;;-0.25;85.40;100559.53;4990800;28;20046;-50
2021/01/25 10:12:37;;;;;;;5.43;3.13;;;;;;;-0.20;85.44;100551.34;4990848;28;20078;-49
2021/01/25 10:15:07;;;;;;;9.30;3.80;;;;;;;-0.14;85.39;100567.38;4989102;28;20069;-51
2021/01/25 10:17:34;;;;;;;10.38;6.47;;;;;;;-0.08;85.37;100560.81;4990318;28;20042;-52
2021/01/25 10:20:00;;;;;;;19.52;9.88;;;;;;;-0.02;85.37;100564.31;4990526;28;20136;-49
2021/01/25 10:22:29;;;;;;;9.23;5.35;;;;;;;0.05;85.55;100570.28;4977856;28;20693;-48
2021/01/25 10:24:56;;;;;;;49.65;28.40;;;;;;;0.09;85.24;100571.34;4983123;28;20041;-49
2021/01/25 10:27:22;;;;;;;16.45;9.05;;;;;;;0.15;85.46;100564.78;4997671;28;20058;-50
2021/01/25 10:29:49;;;;;;;25.35;13.32;;;;;;;0.21;85.51;100560.13;4990142;28;20116;-48
2021/01/25 10:32:16;;;;;;;29.38;17.20;;;;;;;0.27;85.51;100570.69;4989302;28;20046;-50
2021/01/25 10:34:43;;;;;;;16.10;6.45;;;;;;;0.34;85.18;100568.50;4986530;28;20043;-47
2021/01/25 10:37:10;;;;;;;25.73;15.00;;;;;;;0.38;85.35;100564.09;4989689;28;20077;-53
2021/01/25 10:39:36;;;;;;;18.90;7.15;;;;;;;0.43;85.09;100566.78;4987859;28;20108;-52
2021/01/25 10:42:02;;;;;;;15.45;5.82;;;;;;;0.51;85.12;100570.81;4989825;28;20054;-47
2021/01/25 10:44:29;;;;;;;7.88;4.15;;;;;;;0.56;84.92;100573.50;4989304;28;20455;-51
2021/01/25 10:46:55;;;;;;;10.55;3.80;;;;;;;0.61;85.39;100568.00;4988211;28;20049;-50
2021/01/25 10:49:21;;;;;;;6.95;3.50;;;;;;;0.68;85.22;100578.59;4988846;28;20092;-55
2021/01/25 10:51:48;;;;;;;7.53;2.78;;;;;;;0.73;85.17;100576.66;4981639;28;20054;-51
2021/01/25 10:54:14;;;;;;;5.95;3.58;;;;;;;0.77;84.70;100588.59;4988582;28;20042;-49
2021/01/25 10:56:40;;;;;;;9.20;3.50;;;;;;;0.82;84.97;100593.22;4988298;28;20154;-50
2021/01/25 10:59:07;;;;;;;5.20;2.53;;;;;;;0.84;85.21;100582.84;4986129;28;20136;-50
2021/01/25 11:01:34;;;;;;;4.22;3.42;;;;;;;0.88;84.91;100594.78;4971816;28;20078;-53
2021/01/25 11:04:00;;;;;;;8.80;3.55;;;;;;;0.92;84.56;100596.66;4989671;28;20392;-49
2021/01/25 11:06:30;;;;;;;7.63;3.63;;;;;;;0.95;84.76;100596.09;4975995;28;20038;-50
2021/01/25 11:08:56;;;;;;;7.63;3.13;;;;;;;0.97;84.82;100593.09;4988398;28;20096;-50
2021/01/25 11:11:22;;;;;;;6.30;2.78;;;;;;;1.00;84.77;100603.41;4988503;28;20089;-49
2021/01/25 11:13:49;;;;;;;10.48;2.75;;;;;;;1.03;84.79;100597.41;4975894;28;20101;-46
2021/01/25 11:16:15;;;;;;;7.28;2.80;;;;;;;1.06;84.77;100613.19;4965528;28;20050;-49
2021/01/25 11:18:41;;;;;;;8.80;2.83;;;;;;;1.08;84.70;100614.53;4990088;28;20097;-48
2021/01/25 11:21:08;;;;;;;8.15;2.75;;;;;;;1.12;84.59;100606.56;4976504;28;20049;-51
2021/01/25 11:23:34;;;;;;;8.73;3.08;;;;;;;1.15;84.78;100622.38;4989401;28;20578;-50
2021/01/25 11:26:02;;;;;;;8.77;2.53;;;;;;;1.20;84.59;100625.88;4989543;28;20050;-52